This is the latest recevied weather packets stored in our database for station/object SQ8AQL-16. If no packets are shown the sender has not sent any weather packets the latest 10 day(s).
| Time | Temp. | Humidity | Pressure | Rain* | Wind** | Luminosity | Snow |
|---|---|---|---|---|---|---|---|
| 1777658316 | 17.78° C | 39% | 1025.6 hPa | - | - | 1 W/m² | - |
| 1777656514 | 18.33° C | 37% | 1025.5 hPa | - | - | 6 W/m² | - |
| 1777655613 | 18.33° C | 37% | 1025.4 hPa | - | - | 13 W/m² | - |
| 1777654712 | 18.89° C | 35% | 1025.4 hPa | - | - | 23 W/m² | - |
| 1777653811 | 19.44° C | 34% | 1025.4 hPa | - | - | 29 W/m² | - |
| 1777652009 | 20° C | 33% | 1025.6 hPa | - | - | 45 W/m² | - |
| 1777651108 | 20.56° C | 32% | 1025.6 hPa | - | - | 38 W/m² | - |
| 1777650207 | 20.56° C | 31% | 1025.7 hPa | - | - | 51 W/m² | - |
| 1777649306 | 21.11° C | 30% | 1025.7 hPa | - | - | 119 W/m² | - |
| 1777648405 | 20.56° C | 30% | 1025.7 hPa | - | - | 106 W/m² | - |
| 1777647505 | 20.56° C | 31% | 1025.7 hPa | - | - | 68 W/m² | - |
| 1777646604 | 20.56° C | 30% | 1025.9 hPa | - | - | 64 W/m² | - |
| 1777645703 | 21.11° C | 29% | 1025.9 hPa | - | - | 73 W/m² | - |
| 1777644801 | 22.78° C | 27% | 1026 hPa | - | - | 101 W/m² | - |
| 1777643900 | 24.44° C | 24% | 1026 hPa | - | - | 181 W/m² | - |
| 1777642999 | 23.89° C | 25% | 1026.1 hPa | - | - | 196 W/m² | - |
| 1777642098 | 24.44° C | 25% | 1026.2 hPa | - | - | 148 W/m² | - |
| 1777641197 | 28.33° C | 20% | 1026.3 hPa | - | - | 218 W/m² | - |
| 1777640296 | 28.33° C | 20% | 1026.5 hPa | - | - | 218 W/m² | - |
| 1777639395 | 27.78° C | 19% | 1026.6 hPa | - | - | 754 W/m² | - |
| 1777638494 | 23.89° C | 25% | 1026.8 hPa | - | - | 761 W/m² | - |
| 1777637593 | 26.67° C | 21% | 1027 hPa | - | - | 223 W/m² | - |
| 1777636693 | 28.33° C | 20% | 1027.1 hPa | - | - | 899 W/m² | - |
| 1777635791 | 25.56° C | 21% | 1027.2 hPa | - | - | 888 W/m² | - |
| 1777634890 | 23.33° C | 25% | 1027.2 hPa | - | - | 867 W/m² | - |
* Rain since midnight (hover to see other rain measurements)
** Current wind speed in m/s (hover to see current wind gust speed)